Terminal Aerodrome Forecast
Issued by NWS

Home | Current Version | Previous Version | Text Only | Print | Product List | Glossary On
Versions: 1 2 3 4 5 6 7 8 9 10 11 12 13 14 15 16 17
000
FTUS43 KDTX 240528
TAFPTK
TAF
KPTK 240528Z 2406/2506 25007KT P6SM BKN080
     FM240900 26006KT P6SM SCT060
     FM241700 27013G23KT P6SM BKN040=

USA.gov is the U.S. government's official web portal to all federal, state and local government web resources and services.